Time;durP1;ratioP1;P1;durP2;ratioP2;P2;SDS_P1;SDS_P2;PMS_P1;PMS_P2;Temp;Humidity;BMP_temperature;BMP_pressure;BME280_temperature;BME280_humidity;BME280_pressure;Samples;Min_cycle;Max_cycle;Signal;HPM_P1;HPM_P2
2022/01/21 00:01:07;;;;;;;10.65;3.97;;;;;;;-6.27;70.24;96653.91;4962175;28;20111;-60
2022/01/21 00:03:33;;;;;;;11.98;3.60;;;;;;;-6.28;69.88;96644.41;4962475;28;20087;-60
2022/01/21 00:05:59;;;;;;;5.57;2.65;;;;;;;-6.13;69.35;96647.41;4962089;28;20569;-60
2022/01/21 00:08:24;;;;;;;12.35;4.05;;;;;;;-5.93;69.30;96645.94;4962494;28;20071;-60
2022/01/21 00:10:51;;;;;;;4.95;2.47;;;;;;;-5.78;68.96;96644.59;4961978;28;20173;-60
2022/01/21 00:13:23;;;;;;;11.20;3.75;;;;;;;-5.79;68.32;96654.13;4966130;28;20585;-60
2022/01/21 00:15:49;;;;;;;15.30;3.63;;;;;;;-5.73;68.27;96663.44;4962252;28;20174;-61
2022/01/21 00:18:14;;;;;;;11.18;4.13;;;;;;;-5.65;68.33;96661.44;4961992;28;20095;-60
2022/01/21 00:31:35;;;;;;;15.38;4.18;;;;;;;-6.26;69.44;96662.50;4962675;28;20194;-60
2022/01/21 00:34:01;;;;;;;8.10;3.72;;;;;;;-6.15;69.03;96664.78;4963010;28;20107;-60
2022/01/21 00:36:26;;;;;;;11.70;3.97;;;;;;;-6.41;70.81;96674.19;4962960;28;20316;-60
2022/01/21 00:38:54;;;;;;;10.07;3.92;;;;;;;-6.20;69.59;96671.84;4963169;28;20587;-60
2022/01/21 00:41:23;;;;;;;8.63;3.72;;;;;;;-6.43;70.29;96668.19;4962460;28;20118;-60
2022/01/21 00:43:49;;;;;;;17.30;5.78;;;;;;;-6.70;71.24;96671.56;4962175;28;20122;-60
2022/01/21 00:46:14;;;;;;;9.82;3.67;;;;;;;-6.18;71.00;96677.84;4961463;28;20119;-59
2022/01/21 00:48:39;;;;;;;13.85;4.65;;;;;;;-6.15;69.54;96675.97;4955105;28;20294;-60
2022/01/21 00:51:05;;;;;;;11.43;3.83;;;;;;;-5.94;68.99;96681.41;4962720;28;20482;-60
2022/01/21 00:53:30;;;;;;;6.53;2.88;;;;;;;-5.90;68.56;96683.00;4950782;28;20110;-60
2022/01/21 00:55:56;;;;;;;10.05;3.00;;;;;;;-6.01;69.48;96691.09;4949465;28;20086;-60
2022/01/21 00:58:21;;;;;;;7.90;3.53;;;;;;;-5.75;67.91;96694.63;4971282;28;20113;-60
2022/01/21 01:00:47;;;;;;;9.35;3.17;;;;;;;-5.71;68.36;96690.16;4962968;28;20516;-60
2022/01/21 01:03:14;;;;;;;20.00;4.88;;;;;;;-5.94;68.23;96690.94;4963184;28;20075;-60
2022/01/21 01:05:39;;;;;;;10.57;3.42;;;;;;;-5.87;68.29;96690.66;4957987;28;20111;-60
2022/01/21 01:08:05;;;;;;;11.73;4.25;;;;;;;-6.09;69.48;96676.72;4963012;28;20090;-60
2022/01/21 01:21:34;;;;;;;17.23;5.68;;;;;;;-6.11;69.02;96694.91;4973197;28;20457;-60
2022/01/21 01:29:28;;;;;;;10.07;5.43;;;;;;;-6.07;69.07;96711.19;4956986;28;20113;-60
2022/01/21 01:31:54;;;;;;;6.95;3.47;;;;;;;-5.57;67.71;96712.25;4962942;28;20087;-61
2022/01/21 01:34:19;;;;;;;8.07;3.90;;;;;;;-5.92;69.25;96702.94;4962294;28;20107;-60
2022/01/21 01:36:46;;;;;;;9.75;3.90;;;;;;;-6.26;72.47;96707.44;4974110;28;20079;-60
2022/01/21 01:41:43;;;;;;;16.50;6.40;;;;;;;-7.04;72.16;96708.75;4962171;28;20467;-60
2022/01/21 01:49:37;;;;;;;16.88;5.50;;;;;;;-6.75;71.89;96717.50;4966007;28;20339;-60
2022/01/21 01:52:05;;;;;;;8.52;3.25;;;;;;;-6.54;71.16;96717.75;4970112;28;20673;-60
2022/01/21 01:54:31;;;;;;;11.88;5.00;;;;;;;-6.71;72.84;96716.50;4966109;28;20099;-60
2022/01/21 01:56:57;;;;;;;11.38;4.10;;;;;;;-6.40;71.14;96714.75;4965831;28;20800;-60
2022/01/21 01:59:22;;;;;;;11.40;5.38;;;;;;;-6.72;71.41;96725.19;4966063;28;20072;-60
2022/01/21 02:01:56;;;;;;;18.20;6.38;;;;;;;-6.93;73.08;96729.22;4965932;28;20181;-60
2022/01/21 02:04:22;;;;;;;9.55;4.95;;;;;;;-6.68;71.66;96726.78;4964933;28;20131;-60
2022/01/21 02:06:48;;;;;;;13.80;5.72;;;;;;;-6.67;71.09;96723.31;4965723;28;20099;-60
2022/01/21 02:09:14;;;;;;;12.18;4.97;;;;;;;-6.78;71.52;96715.84;4970625;28;20098;-60
2022/01/21 02:11:39;;;;;;;17.48;5.65;;;;;;;-6.58;70.84;96708.38;4964764;28;20086;-59
2022/01/21 02:14:08;;;;;;;10.68;3.63;;;;;;;-6.63;70.78;96706.78;4964480;28;20552;-60
2022/01/21 02:16:44;;;;;;;18.35;6.32;;;;;;;-6.58;70.45;96706.66;4963694;28;20071;-60
2022/01/21 02:21:53;;;;;;;7.43;3.45;;;;;;;-6.08;69.53;96714.69;4962522;28;20145;-58
2022/01/21 02:24:22;;;;;;;11.10;4.38;;;;;;;-6.27;69.33;96704.88;4968267;28;20411;-60
2022/01/21 02:26:49;;;;;;;14.80;4.40;;;;;;;-6.48;70.87;96709.81;4967640;28;20647;-60
2022/01/21 02:29:27;;;;;;;6.10;3.08;;;;;;;-6.26;70.44;96699.66;4958922;28;20580;-60
2022/01/21 02:31:53;;;;;;;14.63;5.18;;;;;;;-6.26;69.54;96706.56;4965054;28;20437;-60
2022/01/21 02:34:18;;;;;;;13.65;4.97;;;;;;;-6.50;70.30;96699.50;4965311;28;20134;-60
2022/01/21 02:36:44;;;;;;;12.60;5.20;;;;;;;-6.13;70.97;96694.09;4977786;28;20327;-60
2022/01/21 02:39:09;;;;;;;15.05;5.22;;;;;;;-5.97;68.69;96689.28;4955429;28;20467;-60
2022/01/21 02:41:35;;;;;;;7.82;3.40;;;;;;;-5.94;68.71;96680.56;4960577;28;20110;-60
2022/01/21 02:44:00;;;;;;;15.40;6.05;;;;;;;-5.82;67.75;96684.50;4965302;28;20099;-61
2022/01/21 02:46:26;;;;;;;10.10;4.75;;;;;;;-6.06;68.39;96686.97;4949235;28;20106;-60
2022/01/21 02:48:52;;;;;;;8.27;3.55;;;;;;;-6.02;68.91;96688.56;4962723;28;20335;-61
2022/01/21 02:51:17;;;;;;;16.20;5.50;;;;;;;-5.97;68.57;96697.91;4965034;28;20211;-61
2022/01/21 02:56:12;;;;;;;11.27;4.32;;;;;;;-5.99;68.94;96694.50;4964727;28;20083;-61
2022/01/21 02:58:38;;;;;;;7.95;4.47;;;;;;;-6.03;70.07;96702.44;4964405;28;20099;-60
2022/01/21 03:01:04;;;;;;;22.20;5.05;;;;;;;-6.00;69.63;96710.97;4962649;28;20480;-60
2022/01/21 03:03:29;;;;;;;21.38;8.60;;;;;;;-6.39;70.40;96721.66;4963478;28;20170;-60
2022/01/21 03:05:55;;;;;;;18.45;6.85;;;;;;;-6.63;71.23;96709.38;4963353;28;20107;-61
2022/01/21 03:08:20;;;;;;;12.10;3.80;;;;;;;-6.27;70.92;96716.13;4963979;28;20552;-61
2022/01/21 03:10:46;;;;;;;9.57;4.22;;;;;;;-5.98;69.83;96714.34;4961733;28;20155;-60
2022/01/21 03:13:11;;;;;;;7.60;3.80;;;;;;;-5.61;67.09;96725.31;4963356;28;20115;-61
2022/01/21 03:15:37;;;;;;;12.18;4.88;;;;;;;-5.57;66.72;96720.88;4963532;28;20283;-61
2022/01/21 03:18:02;;;;;;;7.85;3.85;;;;;;;-5.56;66.73;96707.00;4963622;28;20103;-61
2022/01/21 03:20:27;;;;;;;7.53;3.22;;;;;;;-5.85;67.69;96708.78;4963488;28;20492;-61
2022/01/21 03:22:53;;;;;;;12.75;4.68;;;;;;;-5.60;66.90;96720.97;4965992;28;20103;-61
2022/01/21 03:25:18;;;;;;;13.80;4.60;;;;;;;-6.15;69.53;96724.41;4963139;28;20118;-60
2022/01/21 03:27:44;;;;;;;11.65;5.00;;;;;;;-5.85;68.21;96721.75;4962776;28;20127;-58
2022/01/21 03:30:10;;;;;;;8.52;3.60;;;;;;;-5.94;68.32;96717.72;4962610;28;20111;-59
2022/01/21 03:32:35;;;;;;;17.75;6.03;;;;;;;-5.79;67.84;96720.72;4961482;28;20588;-59
2022/01/21 03:35:01;;;;;;;14.05;6.03;;;;;;;-5.98;68.22;96731.69;4963169;28;20082;-59
2022/01/21 03:37:26;;;;;;;13.77;5.65;;;;;;;-6.58;71.14;96731.69;4962613;28;20169;-59
2022/01/21 03:39:51;;;;;;;13.50;6.43;;;;;;;-5.70;67.90;96735.13;4954790;28;20847;-59
2022/01/21 03:42:17;;;;;;;11.38;6.28;;;;;;;-6.12;70.16;96738.13;4958750;28;20115;-58
2022/01/21 03:44:42;;;;;;;19.98;6.20;;;;;;;-5.93;70.04;96739.31;4950632;28;20103;-59
2022/01/21 03:47:08;;;;;;;17.63;6.65;;;;;;;-6.20;70.22;96742.69;4955633;28;20084;-60
2022/01/21 03:49:38;;;;;;;7.60;3.83;;;;;;;-5.95;69.93;96739.34;4958712;28;20210;-59
2022/01/21 03:52:05;;;;;;;11.50;5.82;;;;;;;-5.92;70.01;96739.25;4963221;28;20210;-59
2022/01/21 03:54:30;;;;;;;18.00;7.32;;;;;;;-6.17;70.11;96734.84;4963343;28;20111;-59
2022/01/21 03:56:56;;;;;;;16.65;5.78;;;;;;;-5.64;68.83;96738.38;4957988;28;20115;-58
2022/01/21 03:59:21;;;;;;;12.48;5.53;;;;;;;-5.90;69.77;96742.66;4956408;28;20094;-58
2022/01/21 04:01:46;;;;;;;14.52;6.70;;;;;;;-6.05;70.48;96735.34;4959585;28;20461;-58
2022/01/21 04:04:12;;;;;;;18.92;7.45;;;;;;;-6.32;71.87;96737.88;4954537;28;20088;-58
2022/01/21 04:06:37;;;;;;;13.18;5.43;;;;;;;-5.86;70.14;96736.50;4974150;28;20111;-58
2022/01/21 04:09:03;;;;;;;14.77;5.57;;;;;;;-6.42;71.64;96734.72;4956649;28;20448;-58
2022/01/21 04:11:28;;;;;;;9.75;4.75;;;;;;;-6.24;70.71;96739.38;4962014;28;20189;-58
2022/01/21 04:13:55;;;;;;;15.45;6.25;;;;;;;-6.08;69.75;96738.03;4963561;28;20106;-59
2022/01/21 04:16:20;;;;;;;14.85;6.35;;;;;;;-6.42;71.78;96732.13;4966655;28;20284;-60
2022/01/21 04:18:46;;;;;;;17.17;8.00;;;;;;;-6.52;72.05;96739.31;4950330;28;20099;-59
2022/01/21 04:21:11;;;;;;;18.27;7.57;;;;;;;-6.81;72.63;96741.81;4961739;28;20114;-59
2022/01/21 04:23:36;;;;;;;17.67;6.65;;;;;;;-6.88;73.16;96730.78;4963331;28;20100;-59
2022/01/21 04:26:02;;;;;;;11.57;6.03;;;;;;;-6.99;73.69;96738.00;4962037;28;20453;-59
2022/01/21 04:28:29;;;;;;;13.38;6.25;;;;;;;-6.75;74.13;96744.25;4961241;28;20071;-59
2022/01/21 04:30:54;;;;;;;11.18;3.55;;;;;;;-6.39;72.45;96745.81;4962959;28;20536;-59
2022/01/21 04:33:20;;;;;;;24.08;7.45;;;;;;;-6.37;71.33;96745.78;4962803;28;20107;-59
2022/01/21 04:35:45;;;;;;;24.10;6.45;;;;;;;-6.27;71.33;96748.94;4961904;28;20079;-59
2022/01/21 04:38:13;;;;;;;12.20;6.28;;;;;;;-5.92;70.30;96751.38;4951360;28;20111;-60
2022/01/21 04:40:47;;;;;;;22.25;6.88;;;;;;;-5.89;70.38;96746.09;4962288;28;20601;-59
2022/01/21 04:48:40;;;;;;;10.63;5.53;;;;;;;-5.84;70.61;96749.41;4963147;28;20544;-60
2022/01/21 04:53:36;;;;;;;25.60;8.88;;;;;;;-6.54;72.62;96770.44;4950189;28;20122;-59
2022/01/21 04:56:02;;;;;;;11.13;4.22;;;;;;;-6.28;72.08;96775.78;4962603;28;20092;-59
2022/01/21 04:58:27;;;;;;;16.17;6.55;;;;;;;-5.81;69.79;96775.22;4961430;28;20111;-59
2022/01/21 05:00:53;;;;;;;12.27;5.25;;;;;;;-5.38;68.97;96770.44;4961900;28;20103;-59
2022/01/21 05:03:18;;;;;;;8.15;3.20;;;;;;;-5.48;69.08;96769.03;4947782;28;20095;-59
2022/01/21 05:05:44;;;;;;;11.95;5.28;;;;;;;-5.51;68.59;96769.13;4962470;28;20413;-60
2022/01/21 05:08:20;;;;;;;12.43;5.57;;;;;;;-5.16;67.84;96767.16;4958282;28;20279;-59
2022/01/21 05:10:46;;;;;;;15.85;5.57;;;;;;;-5.51;67.94;96766.53;4956420;28;20214;-59
2022/01/21 05:13:14;;;;;;;10.88;4.68;;;;;;;-5.74;69.48;96774.16;4950148;28;20190;-59
2022/01/21 05:18:11;;;;;;;14.65;6.20;;;;;;;-5.89;69.65;96778.09;4951704;28;20757;-59
2022/01/21 05:20:36;;;;;;;16.88;6.45;;;;;;;-5.67;68.66;96773.97;4962445;28;20094;-59
2022/01/21 05:23:02;;;;;;;13.85;5.55;;;;;;;-6.41;70.97;96783.06;4953692;28;20125;-59
2022/01/21 05:25:27;;;;;;;11.27;4.15;;;;;;;-6.26;71.87;96769.66;4966077;28;20268;-60
2022/01/21 05:27:55;;;;;;;17.80;7.00;;;;;;;-6.42;72.58;96769.22;4965578;28;20472;-60
2022/01/21 05:30:20;;;;;;;11.43;5.57;;;;;;;-6.17;71.46;96768.53;4966187;28;20111;-59
2022/01/21 05:32:46;;;;;;;15.90;6.03;;;;;;;-5.91;71.18;96772.06;4952685;28;20086;-60
2022/01/21 05:35:11;;;;;;;16.25;7.32;;;;;;;-5.76;69.82;96772.50;4966010;28;20078;-60
2022/01/21 05:37:37;;;;;;;13.57;4.95;;;;;;;-5.57;69.96;96772.78;4952983;28;20423;-60
2022/01/21 05:40:08;;;;;;;18.45;7.25;;;;;;;-5.68;69.51;96762.72;4965675;28;20137;-60
2022/01/21 05:42:35;;;;;;;9.40;5.13;;;;;;;-5.41;68.86;96767.13;4952796;28;20108;-60
2022/01/21 05:47:26;;;;;;;21.45;5.93;;;;;;;-5.10;67.93;96764.31;4964279;28;20516;-60
2022/01/21 05:49:52;;;;;;;14.07;7.30;;;;;;;-5.67;69.84;96771.38;4965915;28;20108;-59
2022/01/21 05:52:19;;;;;;;16.45;7.32;;;;;;;-5.61;68.89;96773.75;4969078;28;20378;-60
2022/01/21 05:54:45;;;;;;;14.88;6.45;;;;;;;-5.49;69.24;96780.31;4971393;28;20110;-60
2022/01/21 05:57:13;;;;;;;5.50;3.25;;;;;;;-5.17;68.06;96775.81;4964326;28;20383;-59
2022/01/21 05:59:38;;;;;;;14.90;5.72;;;;;;;-5.48;69.13;96776.81;4948276;28;20083;-59
2022/01/21 06:02:08;;;;;;;10.57;5.05;;;;;;;-5.55;68.58;96773.59;4961684;28;20174;-59
2022/01/21 06:04:33;;;;;;;18.60;7.55;;;;;;;-5.55;69.00;96765.78;4949459;28;20099;-58
2022/01/21 06:07:03;;;;;;;10.95;6.78;;;;;;;-5.55;69.63;96771.00;4965345;28;20114;-58
2022/01/21 06:09:28;;;;;;;18.30;5.25;;;;;;;-5.60;69.08;96778.91;4962998;28;20105;-58
2022/01/21 06:11:53;;;;;;;12.40;6.25;;;;;;;-5.62;69.83;96779.84;4955820;28;20087;-58
2022/01/21 06:14:19;;;;;;;9.18;4.85;;;;;;;-5.39;69.05;96773.94;4952926;28;20565;-58
2022/01/21 06:16:44;;;;;;;26.20;7.70;;;;;;;-5.35;68.37;96779.88;4964689;28;20539;-57
2022/01/21 06:19:10;;;;;;;7.78;4.22;;;;;;;-5.28;68.04;96788.31;4952308;28;20091;-58
2022/01/21 06:21:35;;;;;;;11.07;5.03;;;;;;;-5.14;68.05;96786.09;4958021;28;20344;-60
2022/01/21 06:24:00;;;;;;;33.92;6.50;;;;;;;-5.43;68.01;96787.06;4957554;28;20106;-60
2022/01/21 06:26:26;;;;;;;13.75;4.82;;;;;;;-5.43;68.45;96793.13;4964118;28;20341;-60
2022/01/21 06:28:51;;;;;;;47.92;6.55;;;;;;;-5.93;71.40;96804.16;4964907;28;20132;-59
2022/01/21 06:31:17;;;;;;;39.88;7.90;;;;;;;-6.01;71.27;96796.63;4964542;28;20087;-60
2022/01/21 06:33:42;;;;;;;54.35;7.15;;;;;;;-6.23;71.53;96805.00;4964135;28;20111;-58
2022/01/21 06:36:07;;;;;;;16.55;5.78;;;;;;;-5.68;69.92;96803.44;4957971;28;20545;-58
2022/01/21 06:38:35;;;;;;;49.58;7.00;;;;;;;-5.92;70.91;96798.91;4965036;28;20110;-58
2022/01/21 06:41:01;;;;;;;24.55;6.03;;;;;;;-5.39;68.86;96799.91;4963687;28;20479;-58
2022/01/21 06:43:27;;;;;;;6.68;4.10;;;;;;;-5.30;68.51;96790.13;4964892;28;20221;-58
2022/01/21 06:45:52;;;;;;;10.77;6.00;;;;;;;-5.02;67.45;96792.66;4952383;28;20126;-59
2022/01/21 06:48:17;;;;;;;13.27;6.72;;;;;;;-5.85;69.89;96802.16;4961604;28;20087;-58
2022/01/21 06:50:43;;;;;;;15.82;6.25;;;;;;;-5.52;69.08;96796.84;4964336;28;20340;-58
2022/01/21 06:53:09;;;;;;;15.63;7.03;;;;;;;-5.15;67.18;96800.00;4949187;28;20154;-58
2022/01/21 06:55:34;;;;;;;14.73;6.38;;;;;;;-5.34;68.38;96799.75;4963646;28;20079;-60
2022/01/21 06:58:00;;;;;;;15.77;7.35;;;;;;;-4.92;67.33;96798.38;4951994;28;20127;-60
2022/01/21 07:00:25;;;;;;;9.30;5.22;;;;;;;-4.93;67.28;96803.63;4964240;28;20103;-60
2022/01/21 07:02:52;;;;;;;18.45;7.80;;;;;;;-5.50;68.70;96808.00;4967102;28;20099;-60
2022/01/21 07:05:17;;;;;;;9.93;4.93;;;;;;;-5.22;68.72;96812.34;4968487;28;20115;-59
2022/01/21 07:07:43;;;;;;;9.20;5.00;;;;;;;-5.22;68.36;96814.94;4963778;28;20087;-60
2022/01/21 07:10:11;;;;;;;19.45;7.40;;;;;;;-5.28;68.46;96822.06;4968446;28;20119;-60
2022/01/21 07:12:36;;;;;;;25.98;6.35;;;;;;;-5.15;68.12;96814.72;4945971;28;20091;-60
2022/01/21 07:15:03;;;;;;;10.02;4.43;;;;;;;-4.96;67.96;96818.41;4963241;28;20126;-60
2022/01/21 07:17:28;;;;;;;9.30;5.22;;;;;;;-4.94;67.51;96826.16;4963160;28;20107;-60
2022/01/21 07:19:54;;;;;;;31.75;8.05;;;;;;;-5.42;68.72;96828.56;4964254;28;20087;-60
2022/01/21 07:22:19;;;;;;;14.50;5.53;;;;;;;-5.25;68.45;96824.56;4953499;28;20565;-60
2022/01/21 07:24:44;;;;;;;16.35;6.55;;;;;;;-5.31;68.80;96822.19;4969610;28;20253;-58
2022/01/21 07:27:10;;;;;;;14.65;7.05;;;;;;;-5.20;68.67;96828.72;4964283;28;20101;-58
2022/01/21 07:29:35;;;;;;;16.08;7.30;;;;;;;-5.60;69.83;96830.81;4961857;28;20563;-58
2022/01/21 07:32:01;;;;;;;14.55;7.22;;;;;;;-5.95;71.41;96831.91;4958764;28;20094;-59
2022/01/21 07:34:26;;;;;;;11.02;5.57;;;;;;;-5.73;71.21;96832.09;4946057;28;20096;-59
2022/01/21 07:36:52;;;;;;;19.42;6.05;;;;;;;-5.36;69.50;96833.53;4961370;28;20083;-59
2022/01/21 07:39:18;;;;;;;7.00;3.92;;;;;;;-4.90;68.00;96839.91;4957963;28;20075;-59
2022/01/21 07:41:43;;;;;;;14.07;6.45;;;;;;;-4.78;67.49;96830.84;4961972;28;20102;-59
2022/01/21 07:44:09;;;;;;;8.73;4.82;;;;;;;-4.97;68.08;96836.66;4952233;28;20095;-58
2022/01/21 07:46:35;;;;;;;31.95;5.88;;;;;;;-5.01;67.82;96840.25;4975709;28;20131;-60
2022/01/21 07:49:01;;;;;;;33.55;8.38;;;;;;;-5.43;69.45;96844.19;4951274;28;20165;-59
2022/01/21 07:51:26;;;;;;;62.78;9.43;;;;;;;-6.02;71.80;96846.75;4963876;28;20115;-60
2022/01/21 07:53:52;;;;;;;16.73;5.68;;;;;;;-5.41;70.30;96830.25;4950541;28;20114;-58
2022/01/21 07:56:17;;;;;;;32.67;8.57;;;;;;;-5.63;70.71;96837.84;4960836;28;20083;-59
2022/01/21 07:58:43;;;;;;;19.42;6.97;;;;;;;-6.01;72.12;96848.47;4966661;28;20233;-59
2022/01/21 08:01:08;;;;;;;8.15;5.05;;;;;;;-5.24;69.67;96840.09;4972455;28;20804;-59
2022/01/21 08:03:34;;;;;;;12.52;6.88;;;;;;;-5.52;70.40;96832.31;4968912;28;20078;-60
2022/01/21 08:05:59;;;;;;;9.73;5.05;;;;;;;-5.29;69.93;96826.44;4966405;28;20115;-59
2022/01/21 08:08:26;;;;;;;19.10;7.72;;;;;;;-5.33;69.51;96835.22;4964665;28;20097;-60
2022/01/21 08:10:52;;;;;;;7.38;3.97;;;;;;;-5.19;69.87;96842.56;4954183;28;20477;-60
2022/01/21 08:13:18;;;;;;;10.60;5.57;;;;;;;-5.16;69.54;96858.06;4954350;28;20800;-60
2022/01/21 08:15:43;;;;;;;12.25;5.72;;;;;;;-4.85;68.28;96857.00;4969106;28;20639;-60
2022/01/21 08:18:09;;;;;;;10.52;5.78;;;;;;;-5.00;68.46;96855.78;4967045;28;20099;-60
2022/01/21 08:20:35;;;;;;;9.27;4.97;;;;;;;-4.88;67.98;96862.34;4965500;28;20106;-60
2022/01/21 08:23:00;;;;;;;12.85;5.90;;;;;;;-5.20;68.70;96859.03;4959156;28;20517;-60
2022/01/21 08:25:26;;;;;;;13.07;5.95;;;;;;;-5.15;69.48;96869.25;4963161;28;20122;-60
2022/01/21 08:27:51;;;;;;;20.90;6.75;;;;;;;-5.25;69.25;96873.91;4963193;28;20392;-60
2022/01/21 08:30:17;;;;;;;51.67;7.68;;;;;;;-5.13;69.13;96873.50;4953727;28;20179;-60
2022/01/21 08:32:42;;;;;;;40.72;6.78;;;;;;;-5.23;69.89;96870.34;4956747;28;20436;-60
2022/01/21 08:35:08;;;;;;;29.88;6.00;;;;;;;-5.65;71.30;96868.19;4959854;28;20510;-60
2022/01/21 08:37:33;;;;;;;17.02;6.32;;;;;;;-5.37;70.11;96878.56;4958564;28;20218;-60
2022/01/21 08:39:59;;;;;;;39.08;8.80;;;;;;;-5.48;70.38;96872.88;4960900;28;20142;-60
2022/01/21 08:42:24;;;;;;;33.55;6.53;;;;;;;-5.28;70.50;96872.25;4956464;28;20163;-60
2022/01/21 08:44:49;;;;;;;29.33;6.85;;;;;;;-5.26;70.50;96885.19;4965929;28;20094;-60
2022/01/21 08:47:15;;;;;;;30.13;7.55;;;;;;;-4.89;69.03;96884.00;4966537;28;20545;-59
2022/01/21 08:49:41;;;;;;;27.45;6.03;;;;;;;-5.13;69.46;96880.47;4953401;28;20531;-58
2022/01/21 08:52:07;;;;;;;98.70;10.63;;;;;;;-5.62;71.55;96870.69;4948202;28;20997;-58
2022/01/21 08:54:32;;;;;;;11.93;5.10;;;;;;;-5.08;70.24;96865.59;4959210;28;20157;-58
2022/01/21 08:56:58;;;;;;;17.85;5.20;;;;;;;-4.75;68.68;96861.94;4955288;28;20449;-58
2022/01/21 08:59:23;;;;;;;24.15;6.50;;;;;;;-5.13;69.24;96865.72;4961092;28;20083;-59
2022/01/21 09:01:49;;;;;;;47.72;8.10;;;;;;;-4.98;68.65;96868.72;4962040;28;20110;-59
2022/01/21 09:04:15;;;;;;;33.60;6.72;;;;;;;-5.20;69.88;96875.47;4959982;28;20605;-59
2022/01/21 09:06:41;;;;;;;41.33;6.50;;;;;;;-5.18;69.90;96882.34;4965333;28;20173;-59
2022/01/21 09:09:06;;;;;;;60.30;7.53;;;;;;;-5.04;69.11;96874.09;4967917;28;20114;-59
2022/01/21 09:11:32;;;;;;;47.13;7.38;;;;;;;-4.90;69.44;96871.09;4969594;28;20090;-59
2022/01/21 09:13:58;;;;;;;69.20;6.95;;;;;;;-4.80;68.75;96874.22;4965715;28;20162;-59
2022/01/21 09:16:23;;;;;;;10.77;5.18;;;;;;;-5.10;69.90;96873.41;4970653;28;20134;-59
2022/01/21 09:18:51;;;;;;;39.78;6.38;;;;;;;-5.26;70.77;96869.63;4962960;28;20111;-59
2022/01/21 09:21:19;;;;;;;42.22;6.28;;;;;;;-4.80;68.78;96876.84;4948751;28;20115;-58
2022/01/21 09:23:47;;;;;;;9.07;5.85;;;;;;;-4.54;68.47;96869.88;4953877;28;20087;-58
2022/01/21 09:26:13;;;;;;;198.88;13.65;;;;;;;-4.94;69.63;96875.53;4945471;28;20585;-58
2022/01/21 09:28:38;;;;;;;36.30;6.45;;;;;;;-4.69;68.22;96870.34;4967424;28;20086;-58
2022/01/21 09:31:04;;;;;;;56.08;6.32;;;;;;;-4.99;70.35;96865.28;4963191;28;20092;-59
2022/01/21 09:33:30;;;;;;;16.33;6.07;;;;;;;-5.04;70.05;96871.50;4955360;28;20186;-59
2022/01/21 09:35:55;;;;;;;27.65;8.27;;;;;;;-5.39;71.14;96876.94;4967145;28;20067;-59
2022/01/21 09:38:20;;;;;;;13.15;5.57;;;;;;;-4.89;69.62;96877.97;4956109;28;20129;-59
2022/01/21 09:40:47;;;;;;;12.23;6.20;;;;;;;-4.78;69.24;96886.28;4973853;28;20158;-58
2022/01/21 09:43:13;;;;;;;9.73;5.75;;;;;;;-4.89;69.30;96881.41;4969598;28;20081;-58
2022/01/21 09:45:39;;;;;;;9.60;5.70;;;;;;;-4.70;68.51;96881.66;4957728;28;20223;-59
2022/01/21 09:48:06;;;;;;;9.05;4.78;;;;;;;-4.34;68.53;96880.47;4967367;28;20721;-58
2022/01/21 09:50:32;;;;;;;9.80;5.75;;;;;;;-4.61;68.08;96890.91;4956295;28;20194;-59
2022/01/21 09:52:58;;;;;;;10.38;4.47;;;;;;;-4.82;70.91;96887.28;4969270;28;20206;-59
2022/01/21 09:55:23;;;;;;;9.73;4.60;;;;;;;-4.24;67.48;96885.34;4956692;28;20170;-59
2022/01/21 09:57:53;;;;;;;13.68;6.28;;;;;;;-4.91;69.41;96887.56;4966403;28;20106;-59
2022/01/21 10:00:20;;;;;;;16.00;8.63;;;;;;;-4.48;68.94;96882.69;4959454;28;20171;-59
2022/01/21 10:02:45;;;;;;;14.43;5.68;;;;;;;-4.14;67.51;96881.50;4975067;28;20095;-59
2022/01/21 10:05:11;;;;;;;18.25;6.68;;;;;;;-4.37;68.22;96880.56;4953019;28;20407;-58
2022/01/21 10:07:39;;;;;;;16.73;7.43;;;;;;;-4.68;69.61;96879.84;4967776;28;20512;-58
2022/01/21 10:10:08;;;;;;;16.83;7.10;;;;;;;-4.69;69.73;96879.91;4965044;28;20340;-59
2022/01/21 10:12:35;;;;;;;20.33;7.65;;;;;;;-5.05;69.31;96894.06;4950853;28;20071;-59
2022/01/21 10:15:01;;;;;;;13.10;5.72;;;;;;;-5.09;70.59;96898.47;4969319;28;20099;-59
2022/01/21 10:17:26;;;;;;;24.60;8.57;;;;;;;-5.47;72.11;96884.97;4971226;28;20468;-58
2022/01/21 10:19:52;;;;;;;12.48;6.53;;;;;;;-5.09;70.87;96902.84;4974284;28;20472;-65
2022/01/21 10:22:26;;;;;;;7.78;4.97;;;;;;;-5.13;71.08;96901.25;4968089;28;20130;-66
2022/01/21 10:25:00;;;;;;;10.68;5.68;;;;;;;-5.25;71.02;96892.94;4954315;28;20106;-65
2022/01/21 10:27:31;;;;;;;12.15;5.95;;;;;;;-5.17;71.14;96892.69;4972333;28;20360;-65
2022/01/21 10:29:57;;;;;;;14.35;6.80;;;;;;;-5.07;70.82;96901.03;4964275;28;20402;-65
2022/01/21 10:32:36;;;;;;;18.20;8.25;;;;;;;-5.59;72.73;96910.41;4958057;28;20509;-67
2022/01/21 10:35:02;;;;;;;9.65;5.10;;;;;;;-4.59;69.95;96903.81;4964359;28;20106;-68
2022/01/21 10:37:31;;;;;;;14.77;7.90;;;;;;;-5.10;70.50;96914.13;4966391;28;20103;-68
2022/01/21 10:40:08;;;;;;;15.02;6.85;;;;;;;-4.87;69.88;96910.81;4952744;28;20109;-69
2022/01/21 10:42:33;;;;;;;23.10;10.93;;;;;;;-5.56;71.73;96921.56;4964572;28;20194;-70
2022/01/21 10:44:59;;;;;;;11.38;6.22;;;;;;;-5.44;72.13;96905.63;4955103;28;20115;-70
2022/01/21 10:47:30;;;;;;;11.93;6.53;;;;;;;-5.60;73.00;96915.63;4972520;28;20079;-67
2022/01/21 10:50:24;;;;;;;17.27;7.50;;;;;;;-4.72;70.08;96901.63;4964831;28;20131;-63
2022/01/21 10:52:51;;;;;;;11.10;6.40;;;;;;;-4.40;70.18;96893.66;4958372;28;20274;-72
2022/01/21 10:55:32;;;;;;;9.80;5.28;;;;;;;-3.93;67.22;96884.22;4968370;28;20079;-73
2022/01/21 10:58:16;;;;;;;10.82;6.00;;;;;;;-3.60;65.16;96891.69;4956093;28;20118;-73
2022/01/21 11:00:57;;;;;;;12.73;5.13;;;;;;;-3.71;66.07;96892.09;4963860;28;20095;-73
2022/01/21 11:03:23;;;;;;;12.15;6.72;;;;;;;-4.02;66.20;96897.56;4953798;28;20079;-74
2022/01/21 11:05:50;;;;;;;8.20;4.50;;;;;;;-4.01;67.05;96899.28;4954008;28;20632;-72
2022/01/21 11:08:17;;;;;;;14.05;4.80;;;;;;;-3.86;66.49;96901.31;4963510;28;20083;-71
2022/01/21 11:10:50;;;;;;;14.48;5.88;;;;;;;-3.31;64.00;96894.94;4962213;28;20115;-71
2022/01/21 11:13:18;;;;;;;9.95;5.13;;;;;;;-3.42;65.33;96897.97;4946058;28;20106;-70
2022/01/21 11:15:56;;;;;;;13.45;6.55;;;;;;;-3.12;64.16;96896.84;4962356;28;20182;-72
2022/01/21 11:18:22;;;;;;;19.02;6.07;;;;;;;-3.42;65.57;96895.38;4957049;28;20608;-72
2022/01/21 11:20:57;;;;;;;13.57;7.10;;;;;;;-3.90;66.00;96889.34;4942066;28;20099;-71
2022/01/21 11:23:23;;;;;;;11.98;6.13;;;;;;;-3.49;65.36;96890.44;4950833;28;20082;-71
2022/01/21 11:25:50;;;;;;;32.42;6.68;;;;;;;-3.58;65.27;96886.41;4955909;28;20389;-70
2022/01/21 11:28:23;;;;;;;35.03;7.18;;;;;;;-3.63;65.46;96873.59;4978518;28;20090;-72
2022/01/21 11:30:49;;;;;;;26.05;6.70;;;;;;;-3.59;65.90;96877.78;4961949;28;20278;-71
2022/01/21 11:33:14;;;;;;;27.30;7.03;;;;;;;-3.29;64.39;96877.47;4961949;28;20143;-70
2022/01/21 11:35:40;;;;;;;25.02;6.38;;;;;;;-2.75;63.73;96884.91;4958282;28;20159;-70
2022/01/21 11:38:07;;;;;;;20.02;6.93;;;;;;;-3.54;65.21;96873.22;4963088;28;20624;-70
2022/01/21 11:40:33;;;;;;;38.47;7.75;;;;;;;-2.71;62.54;96872.59;4961720;28;20091;-72
2022/01/21 11:42:58;;;;;;;12.68;7.05;;;;;;;-2.86;63.56;96866.25;4963255;28;20107;-70
2022/01/21 11:48:49;;;;;;;10.20;5.53;;;;;;;-2.52;62.07;96874.41;4946475;28;20079;-71
2022/01/21 11:50:39;;;;;;;10.93;6.32;;;;;;;-2.56;61.40;96876.31;4961805;28;20103;-71
2022/01/21 11:53:05;;;;;;;11.40;5.63;;;;;;;-3.25;63.44;96875.63;4943633;28;20139;-70
2022/01/21 11:55:45;;;;;;;10.10;5.50;;;;;;;-3.19;63.85;96869.31;4961884;28;20557;-70
2022/01/21 11:58:14;;;;;;;7.00;4.68;;;;;;;-2.76;62.67;96878.00;4962522;28;20099;-71
2022/01/21 12:00:42;;;;;;;10.73;5.20;;;;;;;-2.55;61.67;96872.78;4963709;28;20648;-71
2022/01/21 12:03:08;;;;;;;10.10;5.95;;;;;;;-3.37;64.18;96876.09;4963191;28;20750;-70
2022/01/21 12:05:34;;;;;;;10.23;5.80;;;;;;;-3.04;63.31;96873.06;4941852;28;20581;-71
2022/01/21 12:08:04;;;;;;;12.07;6.28;;;;;;;-3.19;64.52;96879.75;4959050;28;20083;-71
2022/01/21 12:10:43;;;;;;;13.50;6.15;;;;;;;-3.20;64.31;96872.81;4961191;28;20595;-70
2022/01/21 12:13:15;;;;;;;14.23;7.35;;;;;;;-2.70;63.46;96870.81;4954092;28;20115;-70
2022/01/21 12:20:55;;;;;;;9.93;5.55;;;;;;;-2.21;60.69;96857.44;4968910;28;20358;-71
2022/01/21 12:23:21;;;;;;;12.90;5.25;;;;;;;-2.73;62.74;96863.97;4961507;28;20089;-70
2022/01/21 12:26:09;;;;;;;24.63;6.18;;;;;;;-2.44;62.28;96869.72;4960935;28;20119;-71